Hepburn, Pennsylvania
Current Conditions -  °F | °C
As of 10:54 PM on Saturday 25 Oct 2014 (Local Time) from KIPT Reporting Station
Few Clouds Few Clouds  
Wind Chill: 62°   Ceiling: Unl
Heat Index: 62°   Visibility: 10mi
Dew Point: 41°   Wind: 13mph
Humidity: 46%   Direction: 300°WNW
Pressure: 29.63"   Gusts: 20mph
Location:  41.3181°N, 77.075°W
Report Text: KIPT 260254Z AUTO 30011G17KT 10SM FEW060 17/05 A2963 RMK AO2 PK WND 27028/0155 SLP031 T01670050 53003
Loading
Personal Weather Stations






























Interactive Weather Map
Tropical Storm Tracking
New forecast layout! Learn more

10-Day Weather Forecast

Advertisements
Track Severe Weather on mobile